Time;durP1;ratioP1;P1;durP2;ratioP2;P2;SDS_P1;SDS_P2;PMS_P1;PMS_P2;Temp;Humidity;BMP_temperature;BMP_pressure;BME280_temperature;BME280_humidity;BME280_pressure;Samples;Min_cycle;Max_cycle;Signal;HPM_P1;HPM_P2
2022/04/04 00:01:51;;;;;;;0.63;0.63;;;2.00;99.90;;;;;;5072185;28;20741;-66
2022/04/04 00:04:38;;;;;;;3.40;1.10;;;1.80;99.90;;;;;;5072036;28;20416;-67
2022/04/04 00:07:27;;;;;;;4.83;2.20;;;1.90;99.90;;;;;;5072671;28;20420;-67
2022/04/04 00:10:14;;;;;;;0.40;0.40;;;1.80;99.90;;;;;;5073494;28;20435;-66
2022/04/04 00:13:01;;;;;;;0.93;0.60;;;1.80;99.90;;;;;;5071781;28;20542;-67
2022/04/04 00:15:48;;;;;;;0.60;0.60;;;1.80;99.90;;;;;;5072738;28;20463;-67
2022/04/04 00:18:35;;;;;;;0.40;0.40;;;1.80;99.90;;;;;;5073268;28;20428;-66
2022/04/04 00:21:22;;;;;;;0.40;0.40;;;1.80;99.90;;;;;;5072012;28;20851;-68
2022/04/04 00:24:10;;;;;;;0.70;0.70;;;1.80;99.90;;;;;;5072659;28;20424;-67
2022/04/04 00:26:57;;;;;;;0.40;0.40;;;1.80;99.90;;;;;;5071655;28;20803;-66
2022/04/04 00:29:44;;;;;;;0.57;0.57;;;1.70;99.90;;;;;;5072770;28;20427;-66
2022/04/04 00:32:31;;;;;;;0.40;0.40;;;1.70;99.90;;;;;;5071724;28;20451;-67
2022/04/04 00:35:18;;;;;;;0.50;0.50;;;1.70;99.90;;;;;;5071455;28;20435;-66
2022/04/04 00:38:08;;;;;;;0.40;0.40;;;1.60;99.90;;;;;;5072834;28;20431;-67
2022/04/04 00:40:56;;;;;;;0.57;0.57;;;1.70;99.90;;;;;;5072981;28;20420;-69
2022/04/04 00:43:43;;;;;;;1.10;1.00;;;1.60;99.90;;;;;;5071364;28;20441;-67
2022/04/04 00:46:30;;;;;;;0.83;0.83;;;1.60;99.90;;;;;;5072642;28;20808;-67
2022/04/04 00:49:17;;;;;;;0.40;0.40;;;1.60;99.90;;;;;;5072367;28;20419;-66
2022/04/04 00:52:05;;;;;;;0.50;0.50;;;1.60;99.90;;;;;;5071102;28;20466;-66
2022/04/04 00:54:52;;;;;;;0.70;0.70;;;1.60;99.90;;;;;;5071945;28;20960;-67
2022/04/04 00:57:41;;;;;;;2.20;1.13;;;1.60;99.90;;;;;;5071288;28;20464;-67
2022/04/04 01:00:29;;;;;;;0.40;0.40;;;1.70;99.90;;;;;;5072514;28;20427;-67
2022/04/04 01:03:17;;;;;;;0.70;0.70;;;1.60;99.90;;;;;;5072219;28;20448;-68
2022/04/04 01:06:04;;;;;;;0.40;0.40;;;1.60;99.90;;;;;;5071702;28;20565;-67
2022/04/04 01:08:51;;;;;;;0.60;0.50;;;1.70;99.90;;;;;;5072442;28;20490;-67
2022/04/04 01:11:38;;;;;;;0.40;0.40;;;1.60;99.90;;;;;;5072247;28;20428;-67
2022/04/04 01:14:26;;;;;;;1.17;1.00;;;1.70;99.90;;;;;;5072185;28;20455;-68
2022/04/04 01:17:14;;;;;;;0.60;0.60;;;1.60;99.90;;;;;;5072232;28;20471;-67
2022/04/04 01:20:01;;;;;;;0.60;0.60;;;1.60;99.90;;;;;;5072050;28;20431;-67
2022/04/04 01:22:49;;;;;;;0.40;0.40;;;1.70;99.90;;;;;;5072354;28;20448;-66
2022/04/04 01:25:37;;;;;;;0.50;0.50;;;1.60;99.90;;;;;;5072386;28;20944;-65
2022/04/04 01:28:24;;;;;;;0.40;0.40;;;1.60;99.90;;;;;;5072283;28;20428;-67
2022/04/04 01:31:11;;;;;;;0.50;0.50;;;1.50;99.90;;;;;;5072700;28;20628;-67
2022/04/04 01:33:58;;;;;;;0.60;0.60;;;1.40;99.90;;;;;;5073091;28;20455;-67
2022/04/04 01:36:45;;;;;;;0.40;0.40;;;1.40;99.90;;;;;;5072930;28;20467;-67
2022/04/04 01:39:32;;;;;;;0.73;0.73;;;1.50;99.90;;;;;;5072717;28;20436;-66
2022/04/04 01:42:20;;;;;;;0.50;0.50;;;1.40;99.90;;;;;;5083581;28;20439;-67
2022/04/04 01:45:09;;;;;;;0.90;0.90;;;1.40;99.90;;;;;;5083529;28;20425;-68
2022/04/04 01:47:55;;;;;;;0.50;0.50;;;1.50;99.90;;;;;;5066437;28;20918;-67
2022/04/04 01:50:42;;;;;;;0.50;0.50;;;1.50;99.90;;;;;;5063499;28;20427;-68
2022/04/04 01:53:30;;;;;;;0.50;0.50;;;1.50;99.90;;;;;;5094219;22;20495;-67
2022/04/04 01:56:18;;;;;;;0.50;0.50;;;1.50;99.90;;;;;;5076461;28;20452;-67
2022/04/04 01:59:06;;;;;;;1.63;1.50;;;1.50;99.90;;;;;;5075431;28;20482;-66
2022/04/04 02:01:53;;;;;;;0.77;0.57;;;1.50;99.90;;;;;;5075945;28;20958;-66
2022/04/04 02:04:41;;;;;;;0.50;0.50;;;1.50;99.90;;;;;;5057198;28;20420;-67
2022/04/04 02:07:28;;;;;;;0.50;0.50;;;1.60;99.90;;;;;;5056315;28;20941;-67
2022/04/04 02:10:15;;;;;;;0.50;0.50;;;1.50;99.90;;;;;;5054844;28;20425;-67
2022/04/04 02:13:02;;;;;;;0.50;0.50;;;1.50;99.90;;;;;;5054914;28;20456;-66
2022/04/04 02:15:50;;;;;;;1.17;1.17;;;1.50;99.90;;;;;;5054670;28;20859;-67
2022/04/04 02:18:37;;;;;;;0.83;0.83;;;1.60;99.90;;;;;;5054776;28;20420;-67
2022/04/04 02:21:24;;;;;;;0.50;0.50;;;1.50;99.90;;;;;;5055180;28;20424;-66
2022/04/04 02:24:12;;;;;;;1.03;1.03;;;1.60;99.90;;;;;;5055905;28;20457;-67
2022/04/04 02:26:59;;;;;;;0.50;0.50;;;1.60;99.90;;;;;;5055330;28;20417;-67
2022/04/04 02:29:46;;;;;;;0.50;0.50;;;1.50;99.90;;;;;;5055165;28;20425;-67
2022/04/04 02:32:34;;;;;;;0.50;0.50;;;1.50;99.90;;;;;;5054591;28;20437;-67
2022/04/04 02:35:22;;;;;;;1.37;1.20;;;1.50;99.90;;;;;;5054135;28;20420;-67
2022/04/04 02:38:09;;;;;;;0.40;0.40;;;1.50;99.90;;;;;;5054510;28;20985;-67
2022/04/04 02:40:58;;;;;;;1.73;1.27;;;1.50;99.90;;;;;;5056091;28;20795;-66
2022/04/04 02:43:45;;;;;;;0.50;0.50;;;1.50;99.90;;;;;;5055970;28;20763;-67
2022/04/04 02:46:32;;;;;;;0.50;0.50;;;2.10;99.90;;;;;;5055929;28;20425;-67
2022/04/04 02:49:21;;;;;;;0.50;0.50;;;1.40;99.90;;;;;;5058343;28;20421;-67
2022/04/04 02:52:08;;;;;;;1.03;1.03;;;1.40;99.90;;;;;;5056541;28;20447;-67
2022/04/04 02:54:55;;;;;;;0.70;0.70;;;1.40;99.90;;;;;;5054330;28;20831;-67
2022/04/04 02:57:40;;;;;;;0.90;0.73;;;1.40;99.90;;;;;;5055873;28;20756;-66
2022/04/04 03:00:28;;;;;;;0.43;0.43;;;1.40;99.90;;;;;;5054766;28;20459;-66
2022/04/04 03:03:15;;;;;;;0.60;0.60;;;1.40;99.90;;;;;;5054787;28;20456;-67
2022/04/04 03:06:04;;;;;;;0.50;0.50;;;1.40;99.90;;;;;;5053180;28;20490;-67
2022/04/04 03:08:51;;;;;;;1.60;1.57;;;1.40;99.90;;;;;;5054746;28;20425;-66
2022/04/04 03:11:38;;;;;;;2.30;2.10;;;1.30;99.90;;;;;;5054182;28;20428;-67
2022/04/04 03:14:25;;;;;;;0.50;0.50;;;1.40;99.90;;;;;;5054494;28;20470;-66
2022/04/04 03:17:12;;;;;;;0.70;0.70;;;1.40;99.90;;;;;;5054827;28;20460;-66
2022/04/04 03:19:59;;;;;;;0.80;0.80;;;1.30;99.90;;;;;;5054498;28;20831;-67
2022/04/04 03:22:50;;;;;;;0.70;0.60;;;1.40;99.90;;;;;;5054040;28;20481;-67
2022/04/04 03:25:37;;;;;;;0.90;0.57;;;1.30;99.90;;;;;;5054649;28;20428;-66
2022/04/04 03:28:25;;;;;;;0.60;0.60;;;1.30;99.90;;;;;;5054047;28;20948;-66
2022/04/04 03:31:12;;;;;;;1.37;1.37;;;1.30;99.90;;;;;;5054263;28;20781;-66
2022/04/04 03:33:59;;;;;;;1.93;1.53;;;1.30;99.90;;;;;;5054955;28;20448;-68
2022/04/04 03:36:46;;;;;;;1.10;1.10;;;1.30;99.90;;;;;;5054176;28;20471;-66
2022/04/04 03:39:35;;;;;;;0.50;0.50;;;1.20;99.90;;;;;;5054091;28;20807;-66
2022/04/04 03:42:22;;;;;;;0.50;0.50;;;1.20;99.90;;;;;;5054122;28;20478;-67
2022/04/04 03:45:11;;;;;;;0.40;0.40;;;1.20;99.90;;;;;;5054730;28;20559;-66
2022/04/04 03:47:59;;;;;;;0.53;0.53;;;1.20;99.90;;;;;;5052548;28;20452;-66
2022/04/04 03:50:47;;;;;;;0.50;0.50;;;1.20;99.90;;;;;;5053985;28;20842;-66
2022/04/04 03:53:34;;;;;;;0.50;0.50;;;1.20;99.90;;;;;;5053171;28;20582;-66
2022/04/04 03:56:22;;;;;;;0.50;0.50;;;1.20;99.90;;;;;;5053032;28;20435;-67
2022/04/04 03:59:09;;;;;;;0.60;0.60;;;1.20;99.90;;;;;;5054292;28;20506;-66
2022/04/04 04:01:56;;;;;;;1.83;0.90;;;1.10;99.90;;;;;;5054304;28;20829;-67
2022/04/04 04:04:44;;;;;;;0.50;0.50;;;1.20;99.90;;;;;;5053887;28;20826;-66
2022/04/04 04:07:31;;;;;;;0.53;0.53;;;1.20;99.90;;;;;;5053589;28;20848;-67
2022/04/04 04:10:18;;;;;;;0.50;0.50;;;1.20;99.90;;;;;;5054356;28;20421;-67
2022/04/04 04:13:07;;;;;;;0.40;0.40;;;1.20;99.90;;;;;;5052961;28;20499;-67
2022/04/04 04:15:54;;;;;;;0.50;0.50;;;1.20;99.90;;;;;;5053697;28;20852;-66
2022/04/04 04:18:42;;;;;;;1.37;1.03;;;1.20;99.90;;;;;;5053175;28;21004;-65
2022/04/04 04:21:29;;;;;;;0.80;0.80;;;1.20;99.90;;;;;;5052806;28;20428;-66
2022/04/04 04:24:16;;;;;;;0.50;0.50;;;1.20;99.90;;;;;;5053694;28;20449;-70
2022/04/04 04:27:03;;;;;;;0.40;0.40;;;1.30;99.90;;;;;;5053447;28;20418;-67
2022/04/04 04:29:51;;;;;;;0.60;0.60;;;1.20;99.90;;;;;;5052761;28;20435;-66
2022/04/04 04:32:38;;;;;;;0.40;0.40;;;1.30;99.90;;;;;;5053243;28;20986;-67
2022/04/04 04:35:25;;;;;;;0.70;0.70;;;1.30;99.90;;;;;;5053677;28;20425;-68
2022/04/04 04:38:12;;;;;;;4.03;0.70;;;1.30;99.90;;;;;;5062971;28;20461;-67
2022/04/04 04:40:59;;;;;;;0.50;0.50;;;1.30;99.90;;;;;;5071519;28;20421;-66
2022/04/04 04:43:46;;;;;;;0.50;0.50;;;1.30;99.90;;;;;;5070909;28;20453;-66
2022/04/04 04:46:34;;;;;;;0.57;0.57;;;1.30;99.90;;;;;;5072138;28;20430;-67
2022/04/04 04:49:22;;;;;;;0.60;0.60;;;1.40;99.90;;;;;;5072716;28;20421;-66
2022/04/04 04:52:09;;;;;;;0.63;0.63;;;1.40;99.90;;;;;;5072076;28;20429;-71
2022/04/04 04:54:56;;;;;;;0.90;0.80;;;1.50;99.90;;;;;;5072488;28;20478;-66
2022/04/04 04:57:43;;;;;;;0.60;0.60;;;1.50;99.90;;;;;;5072617;28;20469;-68
2022/04/04 05:00:30;;;;;;;0.50;0.50;;;1.50;99.90;;;;;;5072606;28;20405;-67
2022/04/04 05:03:25;;;;;;;0.50;0.50;;;1.50;99.90;;;;;;5073342;28;20445;-66
2022/04/04 05:06:12;;;;;;;1.10;1.10;;;1.60;99.90;;;;;;5072409;28;20429;-65
2022/04/04 05:09:00;;;;;;;1.10;1.10;;;1.70;99.90;;;;;;5071024;28;20429;-67
2022/04/04 05:11:47;;;;;;;1.33;1.33;;;1.80;99.90;;;;;;5066812;28;20444;-67
2022/04/04 05:14:34;;;;;;;1.17;0.80;;;1.80;99.90;;;;;;5053950;28;20439;-66
2022/04/04 05:17:21;;;;;;;0.60;0.60;;;1.70;99.90;;;;;;5053659;28;20464;-66
2022/04/04 05:20:10;;;;;;;0.50;0.50;;;1.80;99.90;;;;;;5052203;28;20429;-66
2022/04/04 05:22:58;;;;;;;1.43;1.23;;;1.90;99.90;;;;;;5051231;28;20441;-66
2022/04/04 05:25:45;;;;;;;0.50;0.50;;;2.10;99.90;;;;;;5053554;28;20460;-67
2022/04/04 05:28:34;;;;;;;0.57;0.57;;;2.20;99.90;;;;;;5053977;28;20436;-66
2022/04/04 05:31:20;;;;;;;0.50;0.50;;;2.20;99.90;;;;;;5055964;28;20421;-69
2022/04/04 05:34:07;;;;;;;1.00;1.00;;;2.30;99.90;;;;;;5057044;28;20445;-67
2022/04/04 05:36:56;;;;;;;0.50;0.50;;;2.40;99.90;;;;;;5056851;28;20951;-67
2022/04/04 05:39:43;;;;;;;0.60;0.60;;;2.50;99.90;;;;;;5056176;28;20413;-67
2022/04/04 05:42:30;;;;;;;0.70;0.70;;;2.50;99.90;;;;;;5034776;28;20437;-66
2022/04/04 05:45:17;;;;;;;0.60;0.60;;;2.60;99.90;;;;;;5036862;28;20420;-67
2022/04/04 05:48:04;;;;;;;0.50;0.50;;;2.70;99.90;;;;;;5035915;28;20446;-67
2022/04/04 05:50:51;;;;;;;0.50;0.50;;;2.80;99.90;;;;;;5056460;28;20786;-67
2022/04/04 05:53:40;;;;;;;1.60;1.50;;;2.90;99.90;;;;;;5055427;28;20467;-67
2022/04/04 05:56:27;;;;;;;0.50;0.50;;;3.00;99.90;;;;;;5055870;28;20861;-66
2022/04/04 05:59:14;;;;;;;0.50;0.50;;;3.20;99.90;;;;;;5056049;28;20847;-68
2022/04/04 06:02:01;;;;;;;0.50;0.50;;;3.30;99.90;;;;;;5056808;28;20490;-67
2022/04/04 06:04:48;;;;;;;0.90;0.90;;;3.40;99.90;;;;;;5055950;28;20986;-68
2022/04/04 06:07:35;;;;;;;1.47;1.43;;;3.50;99.90;;;;;;5056627;28;20425;-67
2022/04/04 06:10:23;;;;;;;1.37;1.37;;;3.60;99.90;;;;;;5057268;28;20795;-68
2022/04/04 06:13:10;;;;;;;1.10;0.93;;;3.70;99.90;;;;;;5056376;28;20444;-67
2022/04/04 06:15:57;;;;;;;4.63;1.63;;;3.80;99.90;;;;;;5052257;28;20429;-68
2022/04/04 06:18:44;;;;;;;0.50;0.50;;;3.90;99.90;;;;;;5056140;28;20470;-65
2022/04/04 06:21:31;;;;;;;0.50;0.50;;;4.00;99.90;;;;;;5055089;28;20436;-67
2022/04/04 06:24:18;;;;;;;0.50;0.50;;;4.10;99.90;;;;;;5054903;28;20448;-67
2022/04/04 06:27:06;;;;;;;0.50;0.50;;;4.10;99.90;;;;;;5052702;28;20458;-67
2022/04/04 06:29:53;;;;;;;1.37;1.37;;;4.10;99.90;;;;;;5053728;28;20466;-67
2022/04/04 06:32:41;;;;;;;0.50;0.50;;;4.20;99.90;;;;;;5055070;28;20445;-67
2022/04/04 06:35:28;;;;;;;3.23;1.43;;;4.30;99.90;;;;;;5054486;28;20425;-68
2022/04/04 06:38:18;;;;;;;1.27;1.27;;;4.40;99.90;;;;;;5054441;28;20472;-67
2022/04/04 06:41:05;;;;;;;0.50;0.50;;;4.50;99.90;;;;;;5054074;28;20432;-67
2022/04/04 06:43:54;;;;;;;7.17;2.97;;;4.50;99.90;;;;;;5051982;28;20467;-67
2022/04/04 06:46:41;;;;;;;1.13;1.10;;;4.50;99.90;;;;;;5054323;28;20432;-66
2022/04/04 06:49:28;;;;;;;0.90;0.73;;;4.50;99.90;;;;;;5051003;28;20427;-65
2022/04/04 06:52:15;;;;;;;0.60;0.60;;;4.50;99.90;;;;;;5054113;28;20437;-68
2022/04/04 06:55:02;;;;;;;0.50;0.50;;;4.70;99.90;;;;;;5053006;28;20455;-67
2022/04/04 06:57:49;;;;;;;0.50;0.50;;;4.80;99.90;;;;;;5053497;28;20461;-68
2022/04/04 07:00:37;;;;;;;0.50;0.50;;;5.00;99.90;;;;;;5053248;28;20778;-65
2022/04/04 07:03:24;;;;;;;3.20;2.90;;;5.10;99.90;;;;;;5054501;28;20797;-67
2022/04/04 07:06:13;;;;;;;3.10;2.30;;;5.20;99.90;;;;;;5051390;28;20436;-66
2022/04/04 07:09:00;;;;;;;0.90;0.90;;;5.30;99.90;;;;;;5052564;28;20575;-66
2022/04/04 07:11:48;;;;;;;0.50;0.50;;;5.30;99.90;;;;;;5053524;28;20425;-66
2022/04/04 07:14:34;;;;;;;4.77;3.10;;;5.40;99.90;;;;;;5056184;28;20429;-66
2022/04/04 07:17:23;;;;;;;3.97;3.43;;;5.50;99.90;;;;;;5058355;28;20585;-66
2022/04/04 07:20:11;;;;;;;1.60;1.50;;;5.50;99.90;;;;;;5060891;28;20455;-68
2022/04/04 07:22:59;;;;;;;0.50;0.50;;;5.60;99.90;;;;;;5058181;28;20895;-67
2022/04/04 07:25:47;;;;;;;2.50;2.40;;;5.80;99.90;;;;;;5056623;28;20468;-68
2022/04/04 07:28:35;;;;;;;5.90;1.27;;;5.80;99.90;;;;;;5061858;28;20432;-68
2022/04/04 07:31:22;;;;;;;1.33;1.20;;;5.90;99.90;;;;;;5062984;28;20490;-67
2022/04/04 07:34:11;;;;;;;0.50;0.50;;;5.90;99.90;;;;;;5054464;28;20497;-66
2022/04/04 07:36:58;;;;;;;6.43;3.23;;;6.00;99.90;;;;;;5053024;28;20546;-66
2022/04/04 07:39:45;;;;;;;0.50;0.50;;;6.00;99.90;;;;;;5052098;28;21416;-67
2022/04/04 07:42:32;;;;;;;0.70;0.70;;;6.00;99.90;;;;;;5051143;28;20448;-67
2022/04/04 07:45:20;;;;;;;7.63;5.00;;;6.10;99.90;;;;;;5052727;28;20432;-68
2022/04/04 07:48:08;;;;;;;1.10;1.10;;;6.30;99.90;;;;;;5051861;28;20425;-68
2022/04/04 07:50:56;;;;;;;3.07;1.27;;;6.10;99.90;;;;;;5053671;28;20451;-68
2022/04/04 07:53:43;;;;;;;2.90;2.13;;;6.20;99.90;;;;;;5051412;28;20807;-68
2022/04/04 07:56:30;;;;;;;3.47;3.17;;;6.40;99.90;;;;;;5050539;28;20515;-70
2022/04/04 07:59:17;;;;;;;1.70;0.70;;;6.40;99.90;;;;;;5050050;28;20460;-67
2022/04/04 08:02:05;;;;;;;3.80;2.70;;;6.40;99.90;;;;;;5051465;28;20436;-68
2022/04/04 08:04:52;;;;;;;0.50;0.50;;;6.40;99.90;;;;;;5052101;28;20433;-66
2022/04/04 08:07:44;;;;;;;0.70;0.70;;;6.60;99.90;;;;;;5052558;28;20428;-67
2022/04/04 08:10:31;;;;;;;3.20;1.90;;;6.80;99.90;;;;;;5050990;28;20881;-69
2022/04/04 08:13:18;;;;;;;0.50;0.50;;;6.80;99.90;;;;;;5052348;28;20468;-68
2022/04/04 08:16:06;;;;;;;1.33;1.13;;;6.90;99.90;;;;;;5052435;28;21107;-67
2022/04/04 08:18:53;;;;;;;0.50;0.50;;;7.00;99.90;;;;;;5052131;28;20456;-66
2022/04/04 08:21:41;;;;;;;1.90;1.77;;;7.30;99.90;;;;;;5051961;28;20420;-67
2022/04/04 08:24:30;;;;;;;2.60;2.27;;;7.30;99.90;;;;;;5049400;28;20431;-67
2022/04/04 08:27:17;;;;;;;0.50;0.50;;;7.30;99.90;;;;;;5051444;28;20425;-66
2022/04/04 08:30:05;;;;;;;0.90;0.90;;;7.50;99.90;;;;;;5051315;28;20420;-68
2022/04/04 08:32:52;;;;;;;1.43;1.33;;;7.50;99.90;;;;;;5051578;28;20444;-67
2022/04/04 08:35:39;;;;;;;2.30;2.00;;;7.50;99.90;;;;;;5051185;28;20447;-66
2022/04/04 08:38:26;;;;;;;1.47;1.37;;;7.40;99.90;;;;;;5048612;28;20570;-66
2022/04/04 08:41:15;;;;;;;1.10;1.00;;;7.20;99.90;;;;;;5050697;28;20429;-66
2022/04/04 08:44:03;;;;;;;0.60;0.60;;;7.30;99.90;;;;;;5050493;28;20455;-66
2022/04/04 08:46:52;;;;;;;4.57;1.47;;;7.50;99.90;;;;;;5050397;28;20429;-69
2022/04/04 08:49:40;;;;;;;0.97;0.97;;;7.70;99.90;;;;;;5050803;28;20454;-68
2022/04/04 08:52:28;;;;;;;0.43;0.43;;;7.70;99.90;;;;;;5050823;28;20456;-68
2022/04/04 08:55:15;;;;;;;1.03;1.03;;;7.80;99.90;;;;;;5043860;28;20496;-66
2022/04/04 08:58:04;;;;;;;2.00;1.77;;;7.70;99.90;;;;;;5042695;28;20426;-67
2022/04/04 09:00:51;;;;;;;2.37;2.17;;;7.50;99.90;;;;;;5032615;28;20942;-67
2022/04/04 09:03:38;;;;;;;10.60;2.70;;;7.60;99.90;;;;;;5034730;28;20460;-66
2022/04/04 09:06:28;;;;;;;2.53;1.23;;;7.60;99.90;;;;;;5043731;28;20454;-67
2022/04/04 09:09:19;;;;;;;1.43;0.80;;;7.70;99.90;;;;;;5043410;28;20926;-67
2022/04/04 09:12:09;;;;;;;4.60;3.30;;;7.80;99.90;;;;;;5047793;28;20531;-66
2022/04/04 09:14:59;;;;;;;0.63;0.63;;;7.70;99.90;;;;;;5049896;28;20463;-67
2022/04/04 09:17:47;;;;;;;0.93;0.83;;;7.70;99.90;;;;;;5044501;28;20429;-67
2022/04/04 09:20:34;;;;;;;0.50;0.50;;;7.80;99.90;;;;;;5047492;28;20435;-67
2022/04/04 09:23:21;;;;;;;0.73;0.73;;;7.80;99.90;;;;;;5046860;28;20471;-67
2022/04/04 09:26:26;;;;;;;0.80;0.80;;;8.00;99.90;;;;;;5045064;28;20442;-68
2022/04/04 09:29:17;;;;;;;1.20;1.10;;;8.20;99.90;;;;;;5038776;28;20418;-67
2022/04/04 09:32:10;;;;;;;0.50;0.50;;;8.30;99.90;;;;;;5051799;28;20221;-68
2022/04/04 09:35:01;;;;;;;0.60;0.60;;;8.40;99.90;;;;;;5051571;28;20428;-67
2022/04/04 09:37:50;;;;;;;0.40;0.40;;;8.70;99.90;;;;;;5052293;28;20428;-67
2022/04/04 09:40:37;;;;;;;1.30;1.27;;;9.00;99.90;;;;;;5050624;28;20944;-67
2022/04/04 09:43:24;;;;;;;2.40;2.17;;;9.30;99.90;;;;;;5049741;28;20448;-68
2022/04/04 09:46:11;;;;;;;2.03;1.93;;;9.30;99.90;;;;;;5046677;28;20446;-67
2022/04/04 09:49:05;;;;;;;3.47;2.33;;;9.30;99.90;;;;;;5041268;28;20431;-66
2022/04/04 09:51:53;;;;;;;0.67;0.67;;;9.20;99.90;;;;;;5043685;28;20425;-67
2022/04/04 09:54:42;;;;;;;0.60;0.60;;;9.10;99.90;;;;;;5040729;28;21045;-68
2022/04/04 09:57:30;;;;;;;0.50;0.50;;;9.50;99.90;;;;;;5037009;28;20421;-67
2022/04/04 10:00:19;;;;;;;1.37;1.07;;;9.90;99.90;;;;;;5041435;28;20472;-68
2022/04/04 10:03:12;;;;;;;3.80;3.47;;;10.10;99.90;;;;;;5036689;28;20452;-67
2022/04/04 10:06:05;;;;;;;0.93;0.93;;;9.60;99.90;;;;;;5030091;28;20426;-67
2022/04/04 10:08:56;;;;;;;4.90;4.37;;;9.40;99.90;;;;;;5040764;28;20424;-69
2022/04/04 10:11:43;;;;;;;1.00;0.97;;;9.10;99.90;;;;;;5050058;28;20443;-67
2022/04/04 10:14:31;;;;;;;4.83;2.60;;;9.00;99.90;;;;;;5049790;28;20451;-67
2022/04/04 10:17:19;;;;;;;1.10;1.10;;;9.00;99.90;;;;;;5053214;28;20419;-67
2022/04/04 10:20:07;;;;;;;0.50;0.50;;;9.10;99.90;;;;;;5053458;28;20549;-67
2022/04/04 10:22:56;;;;;;;1.60;1.50;;;9.50;99.90;;;;;;5053963;28;20809;-67
2022/04/04 10:25:43;;;;;;;0.67;0.67;;;9.70;99.90;;;;;;5045586;28;20960;-68
2022/04/04 10:28:32;;;;;;;0.60;0.60;;;9.90;99.90;;;;;;5048137;28;20532;-67
2022/04/04 10:31:21;;;;;;;1.47;1.37;;;10.00;99.90;;;;;;5040347;28;20424;-68
2022/04/04 10:34:12;;;;;;;2.00;0.83;;;10.10;99.90;;;;;;5044621;28;20456;-67
2022/04/04 10:37:01;;;;;;;0.70;0.70;;;10.20;99.50;;;;;;5042404;28;20421;-67
2022/04/04 10:39:50;;;;;;;1.63;1.53;;;10.10;98.80;;;;;;5039111;28;20518;-68
2022/04/04 10:42:37;;;;;;;1.07;1.07;;;10.10;98.50;;;;;;5050350;28;20515;-68
2022/04/04 10:45:24;;;;;;;2.07;1.87;;;10.20;97.90;;;;;;5052684;28;20543;-71
2022/04/04 10:48:11;;;;;;;2.80;2.60;;;10.40;97.40;;;;;;5053846;28;20941;-69
2022/04/04 10:51:03;;;;;;;2.50;1.90;;;10.00;96.10;;;;;;5054504;28;20429;-67
2022/04/04 10:53:53;;;;;;;2.53;2.33;;;9.70;96.60;;;;;;5052384;28;20460;-69
2022/04/04 10:56:42;;;;;;;0.40;0.40;;;9.50;96.70;;;;;;5053835;28;20424;-67
2022/04/04 10:59:29;;;;;;;3.87;3.50;;;9.40;97.10;;;;;;5051373;28;20492;-69
2022/04/04 11:02:18;;;;;;;1.93;1.53;;;9.00;96.40;;;;;;5052942;28;20436;-67
2022/04/04 11:08:32;;;;;;;1.20;1.10;;;9.00;97.30;;;;;;5051660;28;20428;-68
2022/04/04 11:11:39;;;;;;;1.83;1.67;;;9.10;96.30;;;;;;5044182;28;20807;-67
2022/04/04 11:14:46;;;;;;;1.73;1.47;;;9.10;96.30;;;;;;5046417;28;20497;-67
2022/04/04 11:17:36;;;;;;;0.60;0.60;;;9.10;96.60;;;;;;5042462;28;21139;-68
2022/04/04 11:20:36;;;;;;;2.23;1.70;;;8.90;97.20;;;;;;5041425;28;20479;-70
2022/04/04 11:23:28;;;;;;;1.50;1.23;;;8.60;97.70;;;;;;5041660;28;20945;-68
2022/04/04 11:26:19;;;;;;;1.93;1.70;;;9.70;98.80;;;;;;5041677;28;21247;-69
2022/04/04 11:29:09;;;;;;;0.77;0.77;;;8.70;98.50;;;;;;5045318;28;20431;-68
2022/04/04 11:31:57;;;;;;;0.70;0.70;;;8.90;98.10;;;;;;5048291;28;20980;-67
2022/04/04 11:34:44;;;;;;;4.50;2.00;;;9.40;97.30;;;;;;5042508;28;20416;-68
2022/04/04 11:37:32;;;;;;;1.13;1.13;;;9.60;96.30;;;;;;5043106;28;20453;-68
2022/04/04 11:40:23;;;;;;;0.63;0.63;;;9.90;95.80;;;;;;5045881;28;20840;-68
2022/04/04 11:43:12;;;;;;;1.50;1.40;;;9.90;96.10;;;;;;5047648;28;20872;-68
2022/04/04 11:46:01;;;;;;;3.13;2.27;;;9.80;96.40;;;;;;5052567;28;20466;-68
2022/04/04 11:48:55;;;;;;;9.57;3.73;;;9.70;96.70;;;;;;5054814;28;20495;-68
2022/04/04 11:51:45;;;;;;;4.83;2.03;;;9.60;97.10;;;;;;5054473;28;20482;-67
2022/04/04 11:54:40;;;;;;;0.93;0.80;;;9.00;97.40;;;;;;5056662;28;20433;-68
2022/04/04 11:57:27;;;;;;;2.43;1.53;;;8.70;98.00;;;;;;5055202;28;20432;-67
2022/04/04 12:00:20;;;;;;;1.17;1.00;;;8.60;98.60;;;;;;5057004;28;20464;-67
2022/04/04 12:03:10;;;;;;;0.87;0.87;;;8.40;98.80;;;;;;5057791;28;20440;-67
2022/04/04 12:06:05;;;;;;;1.27;0.60;;;8.30;99.30;;;;;;5055873;28;20511;-68
2022/04/04 12:08:53;;;;;;;2.80;2.30;;;8.30;99.80;;;;;;5046832;28;20448;-68
2022/04/04 12:11:40;;;;;;;2.57;1.87;;;8.20;99.90;;;;;;5053551;28;20458;-68
2022/04/04 12:14:32;;;;;;;1.87;1.00;;;7.90;99.90;;;;;;5052360;28;20439;-67
2022/04/04 12:17:25;;;;;;;1.70;0.80;;;7.50;99.90;;;;;;5053864;28;20745;-67
2022/04/04 12:20:12;;;;;;;6.23;1.47;;;7.40;99.90;;;;;;5052239;28;20513;-68
2022/04/04 12:26:07;;;;;;;1.73;0.50;;;7.00;99.90;;;;;;5073264;28;20418;-68
2022/04/04 12:28:55;;;;;;;0.93;0.70;;;6.90;99.90;;;;;;5072812;28;20438;-67
2022/04/04 12:31:55;;;;;;;5.27;3.50;;;7.10;99.90;;;;;;5072628;28;20419;-69
2022/04/04 12:34:55;;;;;;;1.80;1.60;;;6.80;99.90;;;;;;5072640;28;20419;-68
2022/04/04 12:37:45;;;;;;;2.07;1.87;;;6.60;99.90;;;;;;5064905;28;20452;-68
2022/04/04 12:40:33;;;;;;;2.03;1.30;;;6.10;99.90;;;;;;5047095;28;20462;-68
2022/04/04 12:43:27;;;;;;;2.23;2.03;;;5.70;99.90;;;;;;5043126;28;20440;-67
2022/04/04 12:46:33;;;;;;;2.30;2.10;;;5.50;99.90;;;;;;5052460;28;20417;-66
2022/04/04 12:49:21;;;;;;;1.03;0.93;;;5.40;99.90;;;;;;5051033;28;20834;-68
2022/04/04 12:52:10;;;;;;;0.80;0.80;;;5.30;99.90;;;;;;5051564;28;20803;-66
2022/04/04 12:55:11;;;;;;;2.10;1.57;;;5.00;99.90;;;;;;5046569;28;20472;-67
2022/04/04 12:58:18;;;;;;;0.40;0.40;;;4.80;99.90;;;;;;5049653;28;21158;-68
2022/04/04 13:01:13;;;;;;;1.17;1.07;;;4.90;99.90;;;;;;5053900;28;20476;-68
2022/04/04 13:04:02;;;;;;;0.50;0.50;;;4.90;99.90;;;;;;5054520;28;20456;-68
2022/04/04 13:06:49;;;;;;;0.97;0.50;;;4.80;99.90;;;;;;5060407;28;20425;-68
2022/04/04 13:09:36;;;;;;;5.83;2.77;;;4.90;99.90;;;;;;5058171;28;20542;-68
2022/04/04 13:12:27;;;;;;;0.80;0.80;;;5.00;99.90;;;;;;5066651;28;20448;-68
2022/04/04 13:15:35;;;;;;;0.50;0.50;;;5.00;99.90;;;;;;5067500;28;20429;-68
2022/04/04 13:18:23;;;;;;;1.33;1.23;;;5.00;99.90;;;;;;5068684;28;20428;-68
2022/04/04 13:21:10;;;;;;;0.80;0.80;;;5.00;99.90;;;;;;5071225;28;20453;-67
2022/04/04 13:23:57;;;;;;;0.70;0.70;;;5.00;99.90;;;;;;5070276;28;20444;-68
2022/04/04 13:26:46;;;;;;;2.53;1.17;;;5.00;99.90;;;;;;5070981;28;20539;-67
2022/04/04 13:29:35;;;;;;;2.50;2.20;;;5.00;99.90;;;;;;5071694;28;20425;-68
2022/04/04 13:32:24;;;;;;;0.80;0.80;;;5.00;99.90;;;;;;5072923;28;20456;-68
2022/04/04 13:35:12;;;;;;;0.50;0.50;;;4.90;99.90;;;;;;5071800;28;20437;-68
2022/04/04 13:37:59;;;;;;;1.33;1.20;;;5.00;99.90;;;;;;5066065;28;20428;-67
2022/04/04 13:40:47;;;;;;;0.43;0.43;;;4.90;99.90;;;;;;5072194;28;20452;-68
2022/04/04 13:43:34;;;;;;;3.37;1.70;;;4.90;99.90;;;;;;5055724;28;20442;-67
2022/04/04 13:46:23;;;;;;;0.73;0.73;;;4.60;99.90;;;;;;5054775;28;20428;-68
2022/04/04 13:49:12;;;;;;;1.00;1.00;;;4.50;99.90;;;;;;5055373;28;20490;-72
2022/04/04 13:51:58;;;;;;;0.93;0.73;;;4.40;99.90;;;;;;5049802;28;20440;-68
2022/04/04 13:54:46;;;;;;;1.23;1.00;;;4.50;99.90;;;;;;5053337;28;20935;-67
2022/04/04 13:57:33;;;;;;;0.53;0.53;;;4.50;99.90;;;;;;5048175;28;20947;-67
2022/04/04 14:00:20;;;;;;;1.37;1.27;;;4.50;99.90;;;;;;5050443;28;20533;-67
2022/04/04 14:03:10;;;;;;;0.50;0.50;;;4.50;99.90;;;;;;5054219;28;20452;-66
2022/04/04 14:05:59;;;;;;;0.60;0.60;;;4.50;99.90;;;;;;5050475;28;20809;-67
2022/04/04 14:08:46;;;;;;;0.50;0.50;;;4.60;99.90;;;;;;5054771;28;20483;-67
2022/04/04 14:11:35;;;;;;;1.27;1.20;;;4.50;99.90;;;;;;5056995;28;20432;-67
2022/04/04 14:14:22;;;;;;;1.43;1.07;;;4.50;99.90;;;;;;5054502;28;20472;-68
2022/04/04 14:17:08;;;;;;;0.80;0.80;;;4.60;99.90;;;;;;5060201;28;20439;-68
2022/04/04 14:19:55;;;;;;;0.63;0.63;;;4.50;99.90;;;;;;5058171;28;20475;-67
2022/04/04 14:22:44;;;;;;;1.63;1.53;;;4.60;99.90;;;;;;5059182;28;20506;-68
2022/04/04 14:25:31;;;;;;;0.40;0.40;;;4.30;99.90;;;;;;5059578;28;20464;-67
2022/04/04 14:28:18;;;;;;;0.40;0.40;;;4.30;99.90;;;;;;5058991;28;20951;-68
2022/04/04 14:31:06;;;;;;;0.50;0.50;;;4.30;99.90;;;;;;5059278;28;20421;-67
2022/04/04 14:33:56;;;;;;;0.60;0.60;;;4.30;99.90;;;;;;5052057;28;20453;-68
2022/04/04 14:36:43;;;;;;;1.37;1.37;;;4.20;99.90;;;;;;5051559;28;20491;-68
2022/04/04 14:39:32;;;;;;;1.17;1.00;;;4.30;99.90;;;;;;5058946;22;20504;-71
2022/04/04 14:42:19;;;;;;;0.80;0.67;;;4.30;99.90;;;;;;5055165;28;20511;-71
2022/04/04 14:45:07;;;;;;;1.57;1.47;;;5.90;99.90;;;;;;5052278;28;20524;-71
2022/04/04 14:47:54;;;;;;;0.60;0.60;;;4.20;99.90;;;;;;5056063;28;20429;-71
2022/04/04 14:50:41;;;;;;;1.87;1.77;;;4.20;99.90;;;;;;5056229;28;20445;-71
2022/04/04 14:53:28;;;;;;;0.50;0.50;;;4.20;99.90;;;;;;5056190;28;20428;-70
2022/04/04 14:56:17;;;;;;;1.50;1.10;;;4.20;99.90;;;;;;5054791;28;20432;-74